sensor_id;sensor_type;location;lat;lon;timestamp;pressure;altitude;pressure_sealevel;temperature;humidity
82784;BME280;72520;55.762;37.780;2024-03-02T00:02:16;101262.75;;;3.45;70.04
82784;BME280;72520;55.762;37.780;2024-03-02T00:05:19;101271.56;;;3.41;69.99
82784;BME280;72520;55.762;37.780;2024-03-02T00:08:23;101261.03;;;3.41;69.57
82784;BME280;72520;55.762;37.780;2024-03-02T00:11:27;101261.94;;;3.40;69.80
82784;BME280;72520;55.762;37.780;2024-03-02T00:14:31;101261.94;;;3.40;69.53
82784;BME280;72520;55.762;37.780;2024-03-02T00:17:39;101255.72;;;3.45;69.45
82784;BME280;72520;55.762;37.780;2024-03-02T00:20:42;101263.66;;;3.41;70.23
82784;BME280;72520;55.762;37.780;2024-03-02T00:23:44;101255.81;;;3.39;69.94
82784;BME280;72520;55.762;37.780;2024-03-02T00:26:46;101257.53;;;3.40;69.62
82784;BME280;72520;55.762;37.780;2024-03-02T00:29:52;101256.69;;;3.40;70.02
82784;BME280;72520;55.762;37.780;2024-03-02T00:32:55;101259.28;;;3.41;70.16
82784;BME280;72520;55.762;37.780;2024-03-02T00:35:57;101254.94;;;3.39;70.04
82784;BME280;72520;55.762;37.780;2024-03-02T00:39:00;101251.38;;;3.41;69.77
82784;BME280;72520;55.762;37.780;2024-03-02T00:42:03;101248.66;;;3.47;69.35
82784;BME280;72520;55.762;37.780;2024-03-02T00:45:08;101254.81;;;3.48;70.07
82784;BME280;72520;55.762;37.780;2024-03-02T00:48:10;101256.56;;;3.47;70.69
82784;BME280;72520;55.762;37.780;2024-03-02T00:51:13;101256.56;;;3.49;70.21
82784;BME280;72520;55.762;37.780;2024-03-02T00:54:19;101261.81;;;3.49;69.78
82784;BME280;72520;55.762;37.780;2024-03-02T00:57:22;101259.19;;;3.47;70.62
82784;BME280;72520;55.762;37.780;2024-03-02T01:00:28;101259.28;;;3.41;71.03
82784;BME280;72520;55.762;37.780;2024-03-02T01:03:31;101274.19;;;3.41;70.84
82784;BME280;72520;55.762;37.780;2024-03-02T01:06:34;101262.84;;;3.37;71.48
82784;BME280;72520;55.762;37.780;2024-03-02T01:09:36;101262.00;;;3.34;71.29
82784;BME280;72520;55.762;37.780;2024-03-02T01:12:39;101267.25;;;3.34;71.57
82784;BME280;72520;55.762;37.780;2024-03-02T01:15:47;101262.03;;;3.31;71.00
82784;BME280;72520;55.762;37.780;2024-03-02T01:18:51;101270.84;;;3.30;71.37
82784;BME280;72520;55.762;37.780;2024-03-02T01:21:53;101272.63;;;3.28;71.37
82784;BME280;72520;55.762;37.780;2024-03-02T01:24:58;101266.47;;;3.27;71.27
82784;BME280;72520;55.762;37.780;2024-03-02T01:28:01;101269.19;;;3.23;71.77
82784;BME280;72520;55.762;37.780;2024-03-02T01:31:09;101264.84;;;3.17;72.24
82784;BME280;72520;55.762;37.780;2024-03-02T01:34:11;101268.31;;;3.22;71.93
82784;BME280;72520;55.762;37.780;2024-03-02T01:37:14;101269.22;;;3.20;71.73
82784;BME280;72520;55.762;37.780;2024-03-02T01:40:16;101271.03;;;3.15;71.89
82784;BME280;72520;55.762;37.780;2024-03-02T01:43:19;101269.28;;;3.14;72.21
82784;BME280;72520;55.762;37.780;2024-03-02T01:46:22;101267.59;;;3.08;71.93
82784;BME280;72520;55.762;37.780;2024-03-02T01:49:28;101268.47;;;3.08;71.70
82784;BME280;72520;55.762;37.780;2024-03-02T01:52:33;101276.38;;;3.08;72.42
82784;BME280;72520;55.762;37.780;2024-03-02T01:55:35;101274.66;;;3.06;72.41
82784;BME280;72520;55.762;37.780;2024-03-02T01:58:37;101264.97;;;3.06;72.60
82784;BME280;72520;55.762;37.780;2024-03-02T02:01:41;101275.50;;;3.06;71.96
82784;BME280;72520;55.762;37.780;2024-03-02T02:04:43;101279.88;;;3.07;72.14
82784;BME280;72520;55.762;37.780;2024-03-02T02:07:53;101280.78;;;3.05;72.02
82784;BME280;72520;55.762;37.780;2024-03-02T02:10:55;101280.00;;;2.98;72.07
82784;BME280;72520;55.762;37.780;2024-03-02T02:14:00;101283.38;;;3.06;71.76
82784;BME280;72520;55.762;37.780;2024-03-02T02:17:04;101281.59;;;3.10;71.16
82784;BME280;72520;55.762;37.780;2024-03-02T02:20:07;101289.44;;;3.16;71.13
82784;BME280;72520;55.762;37.780;2024-03-02T02:23:14;101285.03;;;3.17;71.15
82784;BME280;72520;55.762;37.780;2024-03-02T02:26:16;101285.84;;;3.23;70.53
82784;BME280;72520;55.762;37.780;2024-03-02T02:29:18;101284.94;;;3.26;70.84
82784;BME280;72520;55.762;37.780;2024-03-02T02:32:20;101291.91;;;3.30;70.49
82784;BME280;72520;55.762;37.780;2024-03-02T02:35:23;101286.59;;;3.33;70.68
82784;BME280;72520;55.762;37.780;2024-03-02T02:38:27;101292.03;;;3.18;71.06
82784;BME280;72520;55.762;37.780;2024-03-02T02:41:35;101293.03;;;3.09;71.24
82784;BME280;72520;55.762;37.780;2024-03-02T02:44:37;101303.31;;;3.27;70.97
82784;BME280;72520;55.762;37.780;2024-03-02T02:47:39;101303.44;;;3.20;70.30
82784;BME280;72520;55.762;37.780;2024-03-02T02:50:44;101305.16;;;3.22;70.66
82784;BME280;72520;55.762;37.780;2024-03-02T02:53:48;101292.91;;;3.18;70.78
82784;BME280;72520;55.762;37.780;2024-03-02T02:56:50;101292.91;;;3.18;70.84
82784;BME280;72520;55.762;37.780;2024-03-02T02:59:57;101289.47;;;3.12;71.05
82784;BME280;72520;55.762;37.780;2024-03-02T03:03:02;101287.69;;;3.14;70.57
82784;BME280;72520;55.762;37.780;2024-03-02T03:06:04;101288.56;;;3.14;70.73
82784;BME280;72520;55.762;37.780;2024-03-02T03:09:08;101294.75;;;3.12;71.05
82784;BME280;72520;55.762;37.780;2024-03-02T03:12:11;101291.22;;;3.13;70.37
82784;BME280;72520;55.762;37.780;2024-03-02T03:15:14;101291.16;;;3.17;70.30
82784;BME280;72520;55.762;37.780;2024-03-02T03:18:17;101293.81;;;3.16;70.16
82784;BME280;72520;55.762;37.780;2024-03-02T03:21:19;101303.31;;;3.29;70.10
82784;BME280;72520;55.762;37.780;2024-03-02T03:24:26;101305.03;;;3.33;70.04
82784;BME280;72520;55.762;37.780;2024-03-02T03:27:28;101297.13;;;3.33;70.55
82784;BME280;72520;55.762;37.780;2024-03-02T03:30:30;101292.69;;;3.35;70.75
82784;BME280;72520;55.762;37.780;2024-03-02T03:33:33;101294.59;;;3.25;71.48
82784;BME280;72520;55.762;37.780;2024-03-02T03:36:35;101291.09;;;3.23;71.16
82784;BME280;72520;55.762;37.780;2024-03-02T03:39:40;101289.41;;;3.18;71.24
82784;BME280;72520;55.762;37.780;2024-03-02T03:42:44;101287.66;;;3.17;71.53
82784;BME280;72520;55.762;37.780;2024-03-02T03:45:46;101282.44;;;3.14;71.27
82784;BME280;72520;55.762;37.780;2024-03-02T03:48:53;101289.50;;;3.08;71.41
82784;BME280;72520;55.762;37.780;2024-03-02T03:51:56;101279.03;;;3.04;71.39
82784;BME280;72520;55.762;37.780;2024-03-02T03:55:00;101284.34;;;2.99;71.77
82784;BME280;72520;55.762;37.780;2024-03-02T03:58:06;101291.34;;;3.02;70.83
82784;BME280;72520;55.762;37.780;2024-03-02T04:01:09;101287.00;;;2.98;71.17
82784;BME280;72520;55.762;37.780;2024-03-02T04:04:11;101288.72;;;3.00;71.20
82784;BME280;72520;55.762;37.780;2024-03-02T04:07:13;101285.25;;;2.98;71.48
82784;BME280;72520;55.762;37.780;2024-03-02T04:10:17;101293.06;;;3.03;71.45
82784;BME280;72520;55.762;37.780;2024-03-02T04:13:24;101290.50;;;2.98;71.39
82784;BME280;72520;55.762;37.780;2024-03-02T04:16:26;101287.00;;;2.96;71.14
82784;BME280;72520;55.762;37.780;2024-03-02T04:19:30;101286.13;;;2.97;71.38
82784;BME280;72520;55.762;37.780;2024-03-02T04:22:34;101288.75;;;2.99;71.49
82784;BME280;72520;55.762;37.780;2024-03-02T04:25:40;101286.09;;;3.00;71.27
82784;BME280;72520;55.762;37.780;2024-03-02T04:28:43;101293.94;;;3.05;70.59
82784;BME280;72520;55.762;37.780;2024-03-02T04:31:46;101290.50;;;2.98;71.20
82784;BME280;72520;55.762;37.780;2024-03-02T04:34:49;101294.84;;;3.01;71.22
82784;BME280;72520;55.762;37.780;2024-03-02T04:37:51;101286.09;;;3.00;71.38
82784;BME280;72520;55.762;37.780;2024-03-02T04:40:54;101292.22;;;2.99;70.95
82784;BME280;72520;55.762;37.780;2024-03-02T04:44:00;101282.66;;;2.95;71.12
82784;BME280;72520;55.762;37.780;2024-03-02T04:47:03;101296.59;;;3.00;71.10
82784;BME280;72520;55.762;37.780;2024-03-02T04:50:06;101288.75;;;2.97;71.07
82784;BME280;72520;55.762;37.780;2024-03-02T04:53:08;101294.09;;;2.91;70.31
82784;BME280;72520;55.762;37.780;2024-03-02T04:56:18;101298.09;;;3.24;70.05
82784;BME280;72520;55.762;37.780;2024-03-02T04:59:40;101299.28;;;3.71;67.41
82784;BME280;72520;55.762;37.780;2024-03-02T05:02:46;101292.34;;;3.62;67.61
82784;BME280;72520;55.762;37.780;2024-03-02T05:05:48;101294.16;;;3.60;67.79
82784;BME280;72520;55.762;37.780;2024-03-02T05:08:50;101295.22;;;3.45;68.22
82784;BME280;72520;55.762;37.780;2024-03-02T05:11:55;101288.28;;;3.40;67.85
82784;BME280;72520;55.762;37.780;2024-03-02T05:15:30;101284.72;;;3.41;67.70
82784;BME280;72520;55.762;37.780;2024-03-02T05:18:32;101288.22;;;3.43;68.44
82784;BME280;72520;55.762;37.780;2024-03-02T05:21:35;101290.28;;;3.18;68.71
82784;BME280;72520;55.762;37.780;2024-03-02T05:24:37;101289.31;;;3.25;68.70
82784;BME280;72520;55.762;37.780;2024-03-02T05:27:41;101291.78;;;3.39;68.45
82784;BME280;72520;55.762;37.780;2024-03-02T05:30:43;101290.13;;;3.32;69.44
82784;BME280;72520;55.762;37.780;2024-03-02T05:33:48;101293.66;;;3.28;69.10
82784;BME280;72520;55.762;37.780;2024-03-02T05:36:52;101299.97;;;3.16;69.29
82784;BME280;72520;55.762;37.780;2024-03-02T05:39:58;101294.50;;;3.33;69.54
82784;BME280;72520;55.762;37.780;2024-03-02T05:43:03;101296.44;;;3.16;69.16
82784;BME280;72520;55.762;37.780;2024-03-02T05:46:05;101308.44;;;3.39;69.36
82784;BME280;72520;55.762;37.780;2024-03-02T05:49:07;101304.72;;;3.55;68.35
82784;BME280;72520;55.762;37.780;2024-03-02T05:52:10;101312.50;;;3.65;67.78
82784;BME280;72520;55.762;37.780;2024-03-02T05:55:19;101309.31;;;3.40;68.37
82784;BME280;72520;55.762;37.780;2024-03-02T05:58:25;101314.75;;;3.25;69.12
82784;BME280;72520;55.762;37.780;2024-03-02T06:01:38;101306.72;;;3.35;68.61
82784;BME280;72520;55.762;37.780;2024-03-02T06:04:40;101313.81;;;3.30;68.74
82784;BME280;72520;55.762;37.780;2024-03-02T06:07:45;101317.94;;;3.51;68.21
82784;BME280;72520;55.762;37.780;2024-03-02T06:10:47;101316.22;;;3.50;68.20
82784;BME280;72520;55.762;37.780;2024-03-02T06:13:51;101319.78;;;3.46;68.64
82784;BME280;72520;55.762;37.780;2024-03-02T06:16:56;101314.34;;;3.58;67.84
82784;BME280;72520;55.762;37.780;2024-03-02T06:20:00;101312.84;;;3.39;68.74
82784;BME280;72520;55.762;37.780;2024-03-02T06:23:03;101317.25;;;3.34;68.81
82784;BME280;72520;55.762;37.780;2024-03-02T06:26:08;101316.59;;;3.20;69.56
82784;BME280;72520;55.762;37.780;2024-03-02T06:29:15;101312.97;;;3.27;69.96
82784;BME280;72520;55.762;37.780;2024-03-02T06:32:19;101305.03;;;3.31;69.46
82784;BME280;72520;55.762;37.780;2024-03-02T06:35:21;101313.81;;;3.30;69.95
82784;BME280;72520;55.762;37.780;2024-03-02T06:38:24;101304.19;;;3.29;69.42
82784;BME280;72520;55.762;37.780;2024-03-02T06:41:26;101308.72;;;3.15;69.74
82784;BME280;72520;55.762;37.780;2024-03-02T06:44:30;101310.41;;;3.22;69.59
82784;BME280;72520;55.762;37.780;2024-03-02T06:47:32;101313.03;;;3.22;69.86
82784;BME280;72520;55.762;37.780;2024-03-02T06:50:34;101314.59;;;3.37;69.60
82784;BME280;72520;55.762;37.780;2024-03-02T06:53:39;101315.16;;;3.63;68.14
82784;BME280;72520;55.762;37.780;2024-03-02T06:56:41;101314.47;;;3.47;68.88
82784;BME280;72520;55.762;37.780;2024-03-02T06:59:46;101313.75;;;3.36;69.43
82784;BME280;72520;55.762;37.780;2024-03-02T07:02:52;101314.63;;;3.34;69.97
82784;BME280;72520;55.762;37.780;2024-03-02T07:05:54;101323.47;;;3.30;70.24
82784;BME280;72520;55.762;37.780;2024-03-02T07:08:57;101325.19;;;3.31;69.77
82784;BME280;72520;55.762;37.780;2024-03-02T07:11:59;101323.38;;;3.39;69.10
82784;BME280;72520;55.762;37.780;2024-03-02T07:15:07;101324.94;;;3.52;68.68
82784;BME280;72520;55.762;37.780;2024-03-02T07:18:25;101320.69;;;3.42;69.09
82784;BME280;72520;55.762;37.780;2024-03-02T07:21:29;101324.88;;;3.58;69.14
82784;BME280;72520;55.762;37.780;2024-03-02T07:24:32;101323.13;;;3.58;68.11
82784;BME280;72520;55.762;37.780;2024-03-02T07:27:35;101319.78;;;3.44;68.31
82784;BME280;72520;55.762;37.780;2024-03-02T07:30:39;101319.50;;;3.64;67.82
82784;BME280;72520;55.762;37.780;2024-03-02T07:33:46;101317.72;;;3.71;67.08
82784;BME280;72520;55.762;37.780;2024-03-02T07:36:48;101315.59;;;3.95;66.45
82784;BME280;72520;55.762;37.780;2024-03-02T07:39:51;101315.94;;;4.29;66.05
82784;BME280;72520;55.762;37.780;2024-03-02T07:42:58;101313.66;;;4.08;66.16
82784;BME280;72520;55.762;37.780;2024-03-02T07:46:07;101316.31;;;4.05;66.09
82784;BME280;72520;55.762;37.780;2024-03-02T07:49:12;101316.50;;;3.94;66.31
82784;BME280;72520;55.762;37.780;2024-03-02T07:52:16;101306.25;;;3.72;66.70
82784;BME280;72520;55.762;37.780;2024-03-02T07:55:21;101312.53;;;3.63;66.29
82784;BME280;72520;55.762;37.780;2024-03-02T07:58:24;101303.38;;;3.88;66.11
82784;BME280;72520;55.762;37.780;2024-03-02T08:01:31;101306.28;;;3.70;66.87
82784;BME280;72520;55.762;37.780;2024-03-02T08:04:35;101304.53;;;3.69;66.77
82784;BME280;72520;55.762;37.780;2024-03-02T08:07:38;101308.06;;;3.70;67.23
82784;BME280;72520;55.762;37.780;2024-03-02T08:10:40;101307.88;;;3.82;65.98
82784;BME280;72520;55.762;37.780;2024-03-02T08:13:42;101304.94;;;4.03;65.34
82784;BME280;72520;55.762;37.780;2024-03-02T08:16:46;101300.53;;;4.03;65.16
82784;BME280;72520;55.762;37.780;2024-03-02T08:19:48;101300.56;;;4.02;64.78
82784;BME280;72520;55.762;37.780;2024-03-02T08:22:51;101310.22;;;4.01;64.80
82784;BME280;72520;55.762;37.780;2024-03-02T08:25:55;101303.13;;;4.05;65.08
82784;BME280;72520;55.762;37.780;2024-03-02T08:28:58;101310.25;;;4.00;64.54
82784;BME280;72520;55.762;37.780;2024-03-02T08:32:05;101312.66;;;4.15;64.32
82784;BME280;72520;55.762;37.780;2024-03-02T08:35:08;101314.59;;;4.04;64.55
82784;BME280;72520;55.762;37.780;2024-03-02T08:38:10;101307.53;;;4.06;64.83
82784;BME280;72520;55.762;37.780;2024-03-02T08:41:13;101307.56;;;4.04;65.14
82784;BME280;72520;55.762;37.780;2024-03-02T08:44:19;101304.00;;;4.07;64.36
82784;BME280;72520;55.762;37.780;2024-03-02T08:47:35;101307.34;;;4.18;64.32
82784;BME280;72520;55.762;37.780;2024-03-02T08:50:37;101302.66;;;4.37;64.69
82784;BME280;72520;55.762;37.780;2024-03-02T08:53:39;101301.84;;;4.33;64.09
82784;BME280;72520;55.762;37.780;2024-03-02T08:56:41;101303.53;;;4.37;64.26
82784;BME280;72520;55.762;37.780;2024-03-02T08:59:45;101303.66;;;4.30;63.47
82784;BME280;72520;55.762;37.780;2024-03-02T09:02:48;101302.88;;;4.23;63.63
82784;BME280;72520;55.762;37.780;2024-03-02T09:05:53;101301.72;;;4.41;63.76
82784;BME280;72520;55.762;37.780;2024-03-02T09:08:55;101298.47;;;4.25;63.52
82784;BME280;72520;55.762;37.780;2024-03-02T09:11:58;101299.25;;;4.29;63.39
82784;BME280;72520;55.762;37.780;2024-03-02T09:15:03;101299.25;;;4.29;62.55
82784;BME280;72520;55.762;37.780;2024-03-02T09:18:08;101298.22;;;4.40;62.68
82784;BME280;72520;55.762;37.780;2024-03-02T09:21:12;101296.59;;;4.32;62.92
82784;BME280;72520;55.762;37.780;2024-03-02T09:24:16;101296.44;;;4.39;62.52
82784;BME280;72520;55.762;37.780;2024-03-02T09:27:24;101304.34;;;4.41;62.86
82784;BME280;72520;55.762;37.780;2024-03-02T09:30:27;101301.00;;;4.31;62.84
82784;BME280;72520;55.762;37.780;2024-03-02T09:33:31;101299.34;;;4.24;62.73
82784;BME280;72520;55.762;37.780;2024-03-02T09:36:33;101297.66;;;4.20;63.05
82784;BME280;72520;55.762;37.780;2024-03-02T09:39:37;101294.09;;;4.23;62.33
82784;BME280;72520;55.762;37.780;2024-03-02T09:42:39;101287.09;;;4.22;62.92
82784;BME280;72520;55.762;37.780;2024-03-02T09:45:42;101280.19;;;4.15;62.74
82784;BME280;72520;55.762;37.780;2024-03-02T09:48:46;101281.63;;;4.34;62.37
82784;BME280;72520;55.762;37.780;2024-03-02T09:51:49;101271.72;;;4.46;61.86
82784;BME280;72520;55.762;37.780;2024-03-02T09:54:51;101278.69;;;4.50;61.58
82784;BME280;72520;55.762;37.780;2024-03-02T09:57:53;101273.81;;;4.77;61.89
82784;BME280;72520;55.762;37.780;2024-03-02T10:00:56;101277.09;;;4.91;61.76
82784;BME280;72520;55.762;37.780;2024-03-02T10:04:01;101282.84;;;5.11;60.04
82784;BME280;72520;55.762;37.780;2024-03-02T10:07:12;101271.78;;;4.92;60.83
82784;BME280;72520;55.762;37.780;2024-03-02T10:10:15;101272.94;;;4.79;60.54
82784;BME280;72520;55.762;37.780;2024-03-02T10:13:18;101279.16;;;4.75;61.15
82784;BME280;72520;55.762;37.780;2024-03-02T10:16:21;101270.50;;;4.67;61.38
82784;BME280;72520;55.762;37.780;2024-03-02T10:19:24;101271.38;;;4.66;60.75
82784;BME280;72520;55.762;37.780;2024-03-02T10:22:27;101276.41;;;4.80;60.22
82784;BME280;72520;55.762;37.780;2024-03-02T10:25:34;101269.28;;;4.85;59.99
82784;BME280;72520;55.762;37.780;2024-03-02T10:28:46;101278.84;;;4.92;59.52
82784;BME280;72520;55.762;37.780;2024-03-02T10:31:49;101270.91;;;4.92;59.21
82784;BME280;72520;55.762;37.780;2024-03-02T10:34:56;101267.69;;;5.22;59.92
82784;BME280;72520;55.762;37.780;2024-03-02T10:37:59;101263.97;;;5.31;58.54
82784;BME280;72520;55.762;37.780;2024-03-02T10:41:02;101269.31;;;5.28;58.45
82784;BME280;72520;55.762;37.780;2024-03-02T10:44:06;101275.81;;;5.11;59.32
82784;BME280;72520;55.762;37.780;2024-03-02T10:47:11;101275.81;;;5.54;57.81
82784;BME280;72520;55.762;37.780;2024-03-02T10:50:15;101276.88;;;5.44;57.83
82784;BME280;72520;55.762;37.780;2024-03-02T10:53:18;101286.81;;;5.33;58.37
82784;BME280;72520;55.762;37.780;2024-03-02T10:56:29;101283.97;;;5.84;57.22
82784;BME280;72520;55.762;37.780;2024-03-02T10:59:33;101284.66;;;5.52;58.50
82784;BME280;72520;55.762;37.780;2024-03-02T11:02:38;101289.03;;;5.53;58.53
82784;BME280;72520;55.762;37.780;2024-03-02T11:05:44;101292.84;;;5.38;57.73
82784;BME280;72520;55.762;37.780;2024-03-02T11:08:48;101290.69;;;5.16;59.50
82784;BME280;72520;55.762;37.780;2024-03-02T11:11:58;101293.91;;;4.84;59.79
82784;BME280;72520;55.762;37.780;2024-03-02T11:15:05;101291.41;;;4.78;59.92
82784;BME280;72520;55.762;37.780;2024-03-02T11:18:12;101289.69;;;4.75;61.46
82784;BME280;72520;55.762;37.780;2024-03-02T11:21:16;101283.63;;;4.70;60.28
82784;BME280;72520;55.762;37.780;2024-03-02T11:24:32;101283.72;;;4.66;60.32
82784;BME280;72520;55.762;37.780;2024-03-02T11:28:05;101285.50;;;4.63;60.30
82784;BME280;72520;55.762;37.780;2024-03-02T11:31:10;101281.84;;;4.72;60.73
82784;BME280;72520;55.762;37.780;2024-03-02T11:34:29;101283.38;;;4.84;60.54
82784;BME280;72520;55.762;37.780;2024-03-02T11:37:33;101281.91;;;4.69;61.02
82784;BME280;72520;55.762;37.780;2024-03-02T11:40:35;101285.56;;;4.60;60.96
82784;BME280;72520;55.762;37.780;2024-03-02T11:43:38;101282.03;;;4.61;60.44
82784;BME280;72520;55.762;37.780;2024-03-02T11:46:41;101273.41;;;4.52;60.90
82784;BME280;72520;55.762;37.780;2024-03-02T11:49:45;101276.78;;;4.60;60.10
82784;BME280;72520;55.762;37.780;2024-03-02T11:52:51;101276.19;;;4.44;61.18
82784;BME280;72520;55.762;37.780;2024-03-02T11:55:55;101276.94;;;4.52;61.56
82784;BME280;72520;55.762;37.780;2024-03-02T11:58:57;101280.91;;;4.75;60.77
82784;BME280;72520;55.762;37.780;2024-03-02T12:02:02;101274.59;;;4.83;59.97
82784;BME280;72520;55.762;37.780;2024-03-02T12:05:05;101280.66;;;4.88;60.21
82784;BME280;72520;55.762;37.780;2024-03-02T12:08:11;101277.28;;;4.80;60.85
82784;BME280;72520;55.762;37.780;2024-03-02T12:11:17;101280.53;;;4.94;60.44
82784;BME280;72520;55.762;37.780;2024-03-02T12:14:19;101284.16;;;4.89;60.91
82784;BME280;72520;55.762;37.780;2024-03-02T12:17:22;101281.84;;;4.71;59.74
82784;BME280;72520;55.762;37.780;2024-03-02T12:20:28;101278.53;;;4.59;59.79
82784;BME280;72520;55.762;37.780;2024-03-02T12:23:38;101283.66;;;4.69;59.90
82784;BME280;72520;55.762;37.780;2024-03-02T12:26:41;101287.31;;;4.60;60.92
82784;BME280;72520;55.762;37.780;2024-03-02T12:29:43;101273.53;;;4.43;60.49
82784;BME280;72520;55.762;37.780;2024-03-02T12:32:46;101276.47;;;4.28;60.51
82784;BME280;72520;55.762;37.780;2024-03-02T12:35:49;101276.63;;;4.68;60.93
82784;BME280;72520;55.762;37.780;2024-03-02T12:38:54;101275.25;;;4.47;60.55
82784;BME280;72520;55.762;37.780;2024-03-02T12:41:57;101286.47;;;4.58;60.33
82784;BME280;72520;55.762;37.780;2024-03-02T12:45:03;101284.47;;;4.72;59.55
82784;BME280;72520;55.762;37.780;2024-03-02T12:48:06;101282.75;;;4.70;59.28
82784;BME280;72520;55.762;37.780;2024-03-02T12:51:08;101281.94;;;4.66;59.40
82784;BME280;72520;55.762;37.780;2024-03-02T12:54:17;101283.19;;;4.45;59.60
82784;BME280;72520;55.762;37.780;2024-03-02T12:57:19;101288.25;;;5.05;58.50
82784;BME280;72520;55.762;37.780;2024-03-02T13:00:22;101282.31;;;4.94;57.75
82784;BME280;72520;55.762;37.780;2024-03-02T13:03:34;101284.38;;;4.78;58.34
82784;BME280;72520;55.762;37.780;2024-03-02T13:06:36;101286.88;;;4.84;57.72
82784;BME280;72520;55.762;37.780;2024-03-02T13:09:40;101291.41;;;4.78;57.67
82784;BME280;72520;55.762;37.780;2024-03-02T13:12:42;101289.22;;;4.52;58.73
82784;BME280;72520;55.762;37.780;2024-03-02T13:15:47;101284.56;;;4.66;59.26
82784;BME280;72520;55.762;37.780;2024-03-02T13:18:52;101295.16;;;4.63;58.87
82784;BME280;72520;55.762;37.780;2024-03-02T13:22:04;101300.56;;;4.57;58.80
82784;BME280;72520;55.762;37.780;2024-03-02T13:25:08;101306.81;;;4.51;58.48
82784;BME280;72520;55.762;37.780;2024-03-02T13:28:11;101300.25;;;4.74;57.51
82784;BME280;72520;55.762;37.780;2024-03-02T13:31:13;101298.78;;;4.59;58.26
82784;BME280;72520;55.762;37.780;2024-03-02T13:34:16;101301.72;;;4.39;58.77
82784;BME280;72520;55.762;37.780;2024-03-02T13:37:18;101305.66;;;4.14;59.66
82784;BME280;72520;55.762;37.780;2024-03-02T13:40:24;101309.53;;;3.90;59.27
82784;BME280;72520;55.762;37.780;2024-03-02T13:43:27;101306.78;;;3.96;59.91
82784;BME280;72520;55.762;37.780;2024-03-02T13:46:33;101297.81;;;4.09;60.58
82784;BME280;72520;55.762;37.780;2024-03-02T13:49:41;101309.22;;;4.12;59.36
82784;BME280;72520;55.762;37.780;2024-03-02T13:52:45;101310.94;;;4.13;59.65
82784;BME280;72520;55.762;37.780;2024-03-02T13:55:49;101308.53;;;3.97;59.88
82784;BME280;72520;55.762;37.780;2024-03-02T13:58:54;101314.19;;;3.69;60.18
82784;BME280;72520;55.762;37.780;2024-03-02T14:01:57;101314.06;;;3.79;60.43
82784;BME280;72520;55.762;37.780;2024-03-02T14:04:59;101315.88;;;3.76;60.45
82784;BME280;72520;55.762;37.780;2024-03-02T14:08:02;101312.16;;;3.90;60.52
82784;BME280;72520;55.762;37.780;2024-03-02T14:11:06;101312.00;;;3.99;60.10
82784;BME280;72520;55.762;37.780;2024-03-02T14:14:12;101313.94;;;3.88;60.08
82784;BME280;72520;55.762;37.780;2024-03-02T14:17:16;101313.09;;;3.86;61.12
82784;BME280;72520;55.762;37.780;2024-03-02T14:20:18;101318.22;;;3.97;60.41
82784;BME280;72520;55.762;37.780;2024-03-02T14:23:22;101309.63;;;3.84;60.64
82784;BME280;72520;55.762;37.780;2024-03-02T14:26:29;101314.97;;;3.77;60.83
82784;BME280;72520;55.762;37.780;2024-03-02T14:29:31;101319.41;;;3.72;61.03
82784;BME280;72520;55.762;37.780;2024-03-02T14:32:38;101308.97;;;3.66;60.96
82784;BME280;72520;55.762;37.780;2024-03-02T14:35:40;101314.19;;;3.70;61.55
82784;BME280;72520;55.762;37.780;2024-03-02T14:38:45;101314.34;;;3.59;61.26
82784;BME280;72520;55.762;37.780;2024-03-02T14:41:52;101304.84;;;3.46;62.04
82784;BME280;72520;55.762;37.780;2024-03-02T14:45:02;101308.22;;;3.56;62.47
82784;BME280;72520;55.762;37.780;2024-03-02T14:48:06;101303.97;;;3.46;63.00
82784;BME280;72520;55.762;37.780;2024-03-02T14:51:14;101300.47;;;3.44;62.06
82784;BME280;72520;55.762;37.780;2024-03-02T14:54:19;101311.03;;;3.42;63.54
82784;BME280;72520;55.762;37.780;2024-03-02T14:57:24;101316.38;;;3.36;62.87
82784;BME280;72520;55.762;37.780;2024-03-02T15:00:26;101317.25;;;3.34;63.56
82784;BME280;72520;55.762;37.780;2024-03-02T15:03:28;101319.94;;;3.32;62.94
82784;BME280;72520;55.762;37.780;2024-03-02T15:06:33;101318.09;;;3.39;62.77
82784;BME280;72520;55.762;37.780;2024-03-02T15:09:54;101322.19;;;3.63;62.42
82784;BME280;72520;55.762;37.780;2024-03-02T15:13:06;101325.88;;;3.49;62.69
82784;BME280;72520;55.762;37.780;2024-03-02T15:16:10;101328.78;;;3.92;61.28
82784;BME280;72520;55.762;37.780;2024-03-02T15:19:39;101328.19;;;4.33;60.33
82784;BME280;72520;55.762;37.780;2024-03-02T15:22:41;101327.81;;;4.57;58.82
82784;BME280;72520;55.762;37.780;2024-03-02T15:25:43;101322.25;;;4.21;60.37
82784;BME280;72520;55.762;37.780;2024-03-02T15:28:49;101326.91;;;4.02;60.64
82784;BME280;72520;55.762;37.780;2024-03-02T15:31:52;101325.41;;;3.84;60.98
82784;BME280;72520;55.762;37.780;2024-03-02T15:34:57;101326.56;;;3.64;61.39
82784;BME280;72520;55.762;37.780;2024-03-02T15:38:13;101333.69;;;3.57;61.43
82784;BME280;72520;55.762;37.780;2024-03-02T15:41:17;101319.66;;;3.55;61.53
82784;BME280;72520;55.762;37.780;2024-03-02T15:44:21;101327.41;;;3.64;61.68
82784;BME280;72520;55.762;37.780;2024-03-02T15:47:26;101325.66;;;3.66;61.43
82784;BME280;72520;55.762;37.780;2024-03-02T15:50:29;101324.78;;;3.67;61.38
82784;BME280;72520;55.762;37.780;2024-03-02T15:53:39;101324.91;;;3.55;61.55
82784;BME280;72520;55.762;37.780;2024-03-02T15:56:44;101329.59;;;3.32;62.36
82784;BME280;72520;55.762;37.780;2024-03-02T15:59:48;101326.94;;;3.33;61.93
82784;BME280;72520;55.762;37.780;2024-03-02T16:02:52;101323.53;;;3.25;62.62
82784;BME280;72520;55.762;37.780;2024-03-02T16:05:54;101330.41;;;3.34;62.11